sensor_id;sensor_type;location;lat;lon;timestamp;temperature;humidity
41882;DHT22;27562;47.524;12.404;2022-12-18T00:00:41;-6.80;99.90
41882;DHT22;27562;47.524;12.404;2022-12-18T00:03:07;-6.90;99.90
41882;DHT22;27562;47.524;12.404;2022-12-18T00:05:32;-7.00;99.90
41882;DHT22;27562;47.524;12.404;2022-12-18T00:07:58;-7.00;99.90
41882;DHT22;27562;47.524;12.404;2022-12-18T00:10:24;-7.00;99.90
41882;DHT22;27562;47.524;12.404;2022-12-18T00:12:49;-7.00;99.90
41882;DHT22;27562;47.524;12.404;2022-12-18T00:15:15;-7.10;99.90
41882;DHT22;27562;47.524;12.404;2022-12-18T00:17:40;-7.00;99.90
41882;DHT22;27562;47.524;12.404;2022-12-18T00:20:06;-7.00;99.90
41882;DHT22;27562;47.524;12.404;2022-12-18T00:22:32;-7.00;99.90
41882;DHT22;27562;47.524;12.404;2022-12-18T00:24:57;-7.00;99.90
41882;DHT22;27562;47.524;12.404;2022-12-18T00:27:23;-6.90;99.90
41882;DHT22;27562;47.524;12.404;2022-12-18T00:29:48;-6.90;99.90
41882;DHT22;27562;47.524;12.404;2022-12-18T00:32:14;-6.90;99.90
41882;DHT22;27562;47.524;12.404;2022-12-18T00:34:40;-6.90;99.90
41882;DHT22;27562;47.524;12.404;2022-12-18T00:37:05;-6.90;99.90
41882;DHT22;27562;47.524;12.404;2022-12-18T00:39:31;-6.90;99.90
41882;DHT22;27562;47.524;12.404;2022-12-18T00:41:56;-6.90;99.90
41882;DHT22;27562;47.524;12.404;2022-12-18T00:44:40;-6.90;99.90
41882;DHT22;27562;47.524;12.404;2022-12-18T00:47:06;-6.90;99.90
41882;DHT22;27562;47.524;12.404;2022-12-18T00:49:31;-7.00;99.90
41882;DHT22;27562;47.524;12.404;2022-12-18T00:51:57;-7.00;99.90
41882;DHT22;27562;47.524;12.404;2022-12-18T00:54:22;-7.00;99.90
41882;DHT22;27562;47.524;12.404;2022-12-18T00:56:48;-7.10;99.90
41882;DHT22;27562;47.524;12.404;2022-12-18T00:59:14;-7.10;99.90
41882;DHT22;27562;47.524;12.404;2022-12-18T01:01:39;-7.10;99.90
41882;DHT22;27562;47.524;12.404;2022-12-18T01:04:05;-7.10;99.90
41882;DHT22;27562;47.524;12.404;2022-12-18T01:06:31;-7.10;99.90
41882;DHT22;27562;47.524;12.404;2022-12-18T01:08:56;-7.10;99.90
41882;DHT22;27562;47.524;12.404;2022-12-18T01:11:22;-7.10;99.90
41882;DHT22;27562;47.524;12.404;2022-12-18T01:13:48;-7.10;99.90
41882;DHT22;27562;47.524;12.404;2022-12-18T01:16:14;-7.20;99.90
41882;DHT22;27562;47.524;12.404;2022-12-18T01:18:40;-7.20;99.90
41882;DHT22;27562;47.524;12.404;2022-12-18T01:21:09;-7.20;99.90
41882;DHT22;27562;47.524;12.404;2022-12-18T01:23:35;-7.20;99.90
41882;DHT22;27562;47.524;12.404;2022-12-18T01:26:05;-7.30;99.90
41882;DHT22;27562;47.524;12.404;2022-12-18T01:28:31;-7.40;99.90
41882;DHT22;27562;47.524;12.404;2022-12-18T01:30:56;-7.40;99.90
41882;DHT22;27562;47.524;12.404;2022-12-18T01:33:22;-7.30;99.90
41882;DHT22;27562;47.524;12.404;2022-12-18T01:35:47;-7.40;99.90
41882;DHT22;27562;47.524;12.404;2022-12-18T01:38:13;-7.40;99.90
41882;DHT22;27562;47.524;12.404;2022-12-18T01:40:38;-7.40;99.90
41882;DHT22;27562;47.524;12.404;2022-12-18T01:43:04;-7.40;99.90
41882;DHT22;27562;47.524;12.404;2022-12-18T01:45:31;-7.50;99.90
41882;DHT22;27562;47.524;12.404;2022-12-18T01:48:06;-7.60;99.90
41882;DHT22;27562;47.524;12.404;2022-12-18T01:50:42;-7.60;99.90
41882;DHT22;27562;47.524;12.404;2022-12-18T01:55:38;-7.60;99.90
41882;DHT22;27562;47.524;12.404;2022-12-18T01:58:05;-7.60;99.90
41882;DHT22;27562;47.524;12.404;2022-12-18T02:00:30;-7.50;99.90
41882;DHT22;27562;47.524;12.404;2022-12-18T02:02:56;-7.50;99.90
41882;DHT22;27562;47.524;12.404;2022-12-18T02:05:44;-7.50;99.90
41882;DHT22;27562;47.524;12.404;2022-12-18T02:08:20;-7.50;99.90
41882;DHT22;27562;47.524;12.404;2022-12-18T02:18:50;-7.40;99.90
41882;DHT22;27562;47.524;12.404;2022-12-18T02:24:51;-7.50;99.90
41882;DHT22;27562;47.524;12.404;2022-12-18T02:26:56;-7.60;99.90
41882;DHT22;27562;47.524;12.404;2022-12-18T02:29:28;-7.70;99.90
41882;DHT22;27562;47.524;12.404;2022-12-18T02:31:56;-7.70;99.90
41882;DHT22;27562;47.524;12.404;2022-12-18T02:34:23;-7.80;99.90
41882;DHT22;27562;47.524;12.404;2022-12-18T02:36:49;-7.80;99.90
41882;DHT22;27562;47.524;12.404;2022-12-18T02:39:16;-7.80;99.90
41882;DHT22;27562;47.524;12.404;2022-12-18T02:41:43;-7.90;99.90
41882;DHT22;27562;47.524;12.404;2022-12-18T02:44:10;-7.90;99.90
41882;DHT22;27562;47.524;12.404;2022-12-18T02:51:55;-7.90;99.90
41882;DHT22;27562;47.524;12.404;2022-12-18T02:54:34;-7.90;99.90
41882;DHT22;27562;47.524;12.404;2022-12-18T02:57:04;-7.90;99.90
41882;DHT22;27562;47.524;12.404;2022-12-18T02:59:35;-8.00;99.90
41882;DHT22;27562;47.524;12.404;2022-12-18T03:02:16;-8.10;99.90
41882;DHT22;27562;47.524;12.404;2022-12-18T03:04:47;-8.20;99.90
41882;DHT22;27562;47.524;12.404;2022-12-18T03:07:15;-8.20;99.90
41882;DHT22;27562;47.524;12.404;2022-12-18T03:09:44;-8.30;99.90
41882;DHT22;27562;47.524;12.404;2022-12-18T03:12:12;-8.30;99.90
41882;DHT22;27562;47.524;12.404;2022-12-18T03:14:57;-8.30;99.90
41882;DHT22;27562;47.524;12.404;2022-12-18T03:17:23;-8.40;99.90
41882;DHT22;27562;47.524;12.404;2022-12-18T03:19:51;-8.40;99.90
41882;DHT22;27562;47.524;12.404;2022-12-18T03:22:17;-8.50;99.90
41882;DHT22;27562;47.524;12.404;2022-12-18T03:24:43;-8.50;99.90
41882;DHT22;27562;47.524;12.404;2022-12-18T03:27:10;-8.50;99.90
41882;DHT22;27562;47.524;12.404;2022-12-18T03:29:38;-8.50;99.90
41882;DHT22;27562;47.524;12.404;2022-12-18T03:32:10;-8.50;99.90
41882;DHT22;27562;47.524;12.404;2022-12-18T03:34:37;-8.50;99.90
41882;DHT22;27562;47.524;12.404;2022-12-18T03:37:04;-8.50;99.90
41882;DHT22;27562;47.524;12.404;2022-12-18T03:39:29;-8.50;99.90
41882;DHT22;27562;47.524;12.404;2022-12-18T03:41:57;-8.50;99.90
41882;DHT22;27562;47.524;12.404;2022-12-18T03:47:05;-8.50;99.90
41882;DHT22;27562;47.524;12.404;2022-12-18T03:52:18;-8.50;99.90
41882;DHT22;27562;47.524;12.404;2022-12-18T03:54:45;-8.50;99.90
41882;DHT22;27562;47.524;12.404;2022-12-18T03:57:13;-8.60;99.90
41882;DHT22;27562;47.524;12.404;2022-12-18T03:59:39;-8.70;99.90
41882;DHT22;27562;47.524;12.404;2022-12-18T04:02:06;-8.70;99.90
41882;DHT22;27562;47.524;12.404;2022-12-18T04:04:33;-8.70;99.90
41882;DHT22;27562;47.524;12.404;2022-12-18T04:06:59;-8.70;99.90
41882;DHT22;27562;47.524;12.404;2022-12-18T04:09:25;-8.70;99.90
41882;DHT22;27562;47.524;12.404;2022-12-18T04:11:51;-8.80;99.90
41882;DHT22;27562;47.524;12.404;2022-12-18T04:14:16;-8.80;99.90
41882;DHT22;27562;47.524;12.404;2022-12-18T04:16:42;-8.80;99.90
41882;DHT22;27562;47.524;12.404;2022-12-18T04:19:08;-8.80;99.90
41882;DHT22;27562;47.524;12.404;2022-12-18T04:21:33;-8.80;99.90
41882;DHT22;27562;47.524;12.404;2022-12-18T04:23:59;-8.80;99.90
41882;DHT22;27562;47.524;12.404;2022-12-18T04:26:24;-8.80;99.90
41882;DHT22;27562;47.524;12.404;2022-12-18T04:28:50;-8.80;99.90
41882;DHT22;27562;47.524;12.404;2022-12-18T04:31:15;-8.80;99.90
41882;DHT22;27562;47.524;12.404;2022-12-18T04:33:41;-8.90;99.90
41882;DHT22;27562;47.524;12.404;2022-12-18T04:36:06;-9.00;99.90
41882;DHT22;27562;47.524;12.404;2022-12-18T04:38:32;-9.10;99.90
41882;DHT22;27562;47.524;12.404;2022-12-18T04:40:58;-9.20;99.90
41882;DHT22;27562;47.524;12.404;2022-12-18T04:43:23;-9.20;99.90
41882;DHT22;27562;47.524;12.404;2022-12-18T04:45:49;-9.20;99.90
41882;DHT22;27562;47.524;12.404;2022-12-18T04:48:15;-9.20;99.90
41882;DHT22;27562;47.524;12.404;2022-12-18T04:50:41;-9.20;99.90
41882;DHT22;27562;47.524;12.404;2022-12-18T04:53:06;-9.20;99.90
41882;DHT22;27562;47.524;12.404;2022-12-18T04:55:32;-9.20;99.90
41882;DHT22;27562;47.524;12.404;2022-12-18T04:57:57;-9.20;99.90
41882;DHT22;27562;47.524;12.404;2022-12-18T05:00:23;-9.20;99.90
41882;DHT22;27562;47.524;12.404;2022-12-18T05:02:48;-9.20;99.90
41882;DHT22;27562;47.524;12.404;2022-12-18T05:05:14;-9.20;99.90
41882;DHT22;27562;47.524;12.404;2022-12-18T05:07:40;-9.20;99.90
41882;DHT22;27562;47.524;12.404;2022-12-18T05:10:05;-9.20;99.90
41882;DHT22;27562;47.524;12.404;2022-12-18T05:12:31;-9.30;99.90
41882;DHT22;27562;47.524;12.404;2022-12-18T05:14:56;-9.40;99.90
41882;DHT22;27562;47.524;12.404;2022-12-18T05:17:22;-9.40;99.90
41882;DHT22;27562;47.524;12.404;2022-12-18T05:19:47;-9.50;99.90
41882;DHT22;27562;47.524;12.404;2022-12-18T05:22:13;-9.50;99.90
41882;DHT22;27562;47.524;12.404;2022-12-18T05:24:39;-9.50;99.90
41882;DHT22;27562;47.524;12.404;2022-12-18T05:27:04;-9.50;99.90
41882;DHT22;27562;47.524;12.404;2022-12-18T05:29:30;-9.50;99.90
41882;DHT22;27562;47.524;12.404;2022-12-18T05:31:55;-9.50;99.90
41882;DHT22;27562;47.524;12.404;2022-12-18T05:34:21;-9.50;99.90
41882;DHT22;27562;47.524;12.404;2022-12-18T05:36:46;-9.50;99.90
41882;DHT22;27562;47.524;12.404;2022-12-18T05:39:12;-9.50;99.90
41882;DHT22;27562;47.524;12.404;2022-12-18T05:41:37;-9.50;99.90
41882;DHT22;27562;47.524;12.404;2022-12-18T05:44:03;-9.50;99.90
41882;DHT22;27562;47.524;12.404;2022-12-18T05:46:29;-9.50;99.90
41882;DHT22;27562;47.524;12.404;2022-12-18T05:48:54;-9.50;99.90
41882;DHT22;27562;47.524;12.404;2022-12-18T05:51:21;-9.40;99.90
41882;DHT22;27562;47.524;12.404;2022-12-18T05:53:47;-9.40;99.90
41882;DHT22;27562;47.524;12.404;2022-12-18T05:56:14;-9.40;99.90
41882;DHT22;27562;47.524;12.404;2022-12-18T05:58:41;-9.40;99.90
41882;DHT22;27562;47.524;12.404;2022-12-18T06:01:11;-9.40;99.90
41882;DHT22;27562;47.524;12.404;2022-12-18T06:03:37;-9.40;99.90
41882;DHT22;27562;47.524;12.404;2022-12-18T06:06:03;-9.50;99.90
41882;DHT22;27562;47.524;12.404;2022-12-18T06:08:28;-9.50;99.90
41882;DHT22;27562;47.524;12.404;2022-12-18T06:10:54;-9.50;99.90
41882;DHT22;27562;47.524;12.404;2022-12-18T06:13:20;-9.60;99.90
41882;DHT22;27562;47.524;12.404;2022-12-18T06:15:46;-9.60;99.90
41882;DHT22;27562;47.524;12.404;2022-12-18T06:18:11;-9.60;99.90
41882;DHT22;27562;47.524;12.404;2022-12-18T06:20:37;-9.70;99.90
41882;DHT22;27562;47.524;12.404;2022-12-18T06:23:05;-9.70;99.90
41882;DHT22;27562;47.524;12.404;2022-12-18T06:25:30;-9.70;99.90
41882;DHT22;27562;47.524;12.404;2022-12-18T06:27:56;-9.70;99.90
41882;DHT22;27562;47.524;12.404;2022-12-18T06:30:22;-9.70;99.90
41882;DHT22;27562;47.524;12.404;2022-12-18T06:32:48;-9.70;99.90
41882;DHT22;27562;47.524;12.404;2022-12-18T06:35:13;-9.60;99.90
41882;DHT22;27562;47.524;12.404;2022-12-18T06:37:39;-9.60;99.90
41882;DHT22;27562;47.524;12.404;2022-12-18T06:40:05;-9.60;99.90
41882;DHT22;27562;47.524;12.404;2022-12-18T06:42:31;-9.60;99.90
41882;DHT22;27562;47.524;12.404;2022-12-18T06:44:57;-9.60;99.90
41882;DHT22;27562;47.524;12.404;2022-12-18T06:47:22;-9.60;99.90
41882;DHT22;27562;47.524;12.404;2022-12-18T06:49:48;-9.60;99.90
41882;DHT22;27562;47.524;12.404;2022-12-18T06:52:13;-9.60;99.90
41882;DHT22;27562;47.524;12.404;2022-12-18T06:54:39;-9.60;99.90
41882;DHT22;27562;47.524;12.404;2022-12-18T06:57:05;-9.70;99.90
41882;DHT22;27562;47.524;12.404;2022-12-18T06:59:31;-9.80;99.90
41882;DHT22;27562;47.524;12.404;2022-12-18T07:01:56;-9.80;99.90
41882;DHT22;27562;47.524;12.404;2022-12-18T07:04:22;-9.80;99.90
41882;DHT22;27562;47.524;12.404;2022-12-18T07:06:47;-9.80;99.90
41882;DHT22;27562;47.524;12.404;2022-12-18T07:09:13;-9.80;99.90
41882;DHT22;27562;47.524;12.404;2022-12-18T07:11:38;-9.80;99.90
41882;DHT22;27562;47.524;12.404;2022-12-18T07:14:04;-9.80;99.90
41882;DHT22;27562;47.524;12.404;2022-12-18T07:16:29;-9.70;99.90
41882;DHT22;27562;47.524;12.404;2022-12-18T07:18:55;-9.70;99.90
41882;DHT22;27562;47.524;12.404;2022-12-18T07:21:21;-9.70;99.90
41882;DHT22;27562;47.524;12.404;2022-12-18T07:23:48;-9.70;99.90
41882;DHT22;27562;47.524;12.404;2022-12-18T07:26:14;-9.70;99.90
41882;DHT22;27562;47.524;12.404;2022-12-18T07:28:40;-9.80;99.90
41882;DHT22;27562;47.524;12.404;2022-12-18T07:31:07;-9.90;99.90
41882;DHT22;27562;47.524;12.404;2022-12-18T07:33:33;-9.90;99.90
41882;DHT22;27562;47.524;12.404;2022-12-18T07:36:01;-9.90;99.90
41882;DHT22;27562;47.524;12.404;2022-12-18T07:38:28;-10.00;99.90
41882;DHT22;27562;47.524;12.404;2022-12-18T07:40:54;-10.00;99.90
41882;DHT22;27562;47.524;12.404;2022-12-18T07:43:19;-9.90;99.90
41882;DHT22;27562;47.524;12.404;2022-12-18T07:45:45;-9.90;99.90
41882;DHT22;27562;47.524;12.404;2022-12-18T07:48:10;-9.90;99.90
41882;DHT22;27562;47.524;12.404;2022-12-18T07:50:36;-9.80;99.90
41882;DHT22;27562;47.524;12.404;2022-12-18T07:53:02;-9.90;99.90
41882;DHT22;27562;47.524;12.404;2022-12-18T07:55:30;-9.90;99.90
41882;DHT22;27562;47.524;12.404;2022-12-18T07:57:56;-10.00;99.90
41882;DHT22;27562;47.524;12.404;2022-12-18T08:00:21;-10.00;99.90
41882;DHT22;27562;47.524;12.404;2022-12-18T08:02:47;-10.00;99.90
41882;DHT22;27562;47.524;12.404;2022-12-18T08:05:13;-10.00;99.90
41882;DHT22;27562;47.524;12.404;2022-12-18T08:07:39;-9.90;99.90
41882;DHT22;27562;47.524;12.404;2022-12-18T08:10:05;-9.80;99.90
41882;DHT22;27562;47.524;12.404;2022-12-18T08:12:30;-9.80;99.90
41882;DHT22;27562;47.524;12.404;2022-12-18T08:14:56;-9.70;99.90
41882;DHT22;27562;47.524;12.404;2022-12-18T08:17:21;-9.60;99.90
41882;DHT22;27562;47.524;12.404;2022-12-18T08:19:47;-9.60;99.90
41882;DHT22;27562;47.524;12.404;2022-12-18T08:22:12;-9.50;99.90
41882;DHT22;27562;47.524;12.404;2022-12-18T08:24:38;-9.50;99.90
41882;DHT22;27562;47.524;12.404;2022-12-18T08:27:04;-9.40;99.90
41882;DHT22;27562;47.524;12.404;2022-12-18T08:29:29;-9.20;99.90
41882;DHT22;27562;47.524;12.404;2022-12-18T08:31:55;-9.20;99.90
41882;DHT22;27562;47.524;12.404;2022-12-18T08:34:21;-9.10;99.90
41882;DHT22;27562;47.524;12.404;2022-12-18T08:36:46;-9.10;99.90
41882;DHT22;27562;47.524;12.404;2022-12-18T08:39:12;-9.10;99.90
41882;DHT22;27562;47.524;12.404;2022-12-18T08:41:37;-9.00;99.90
41882;DHT22;27562;47.524;12.404;2022-12-18T08:44:03;-9.00;99.90
41882;DHT22;27562;47.524;12.404;2022-12-18T08:46:47;-9.00;99.90
41882;DHT22;27562;47.524;12.404;2022-12-18T08:49:12;-9.00;99.90
41882;DHT22;27562;47.524;12.404;2022-12-18T08:51:38;-8.90;99.90
41882;DHT22;27562;47.524;12.404;2022-12-18T08:54:04;-8.90;99.90
41882;DHT22;27562;47.524;12.404;2022-12-18T08:56:30;-9.00;99.90
41882;DHT22;27562;47.524;12.404;2022-12-18T08:58:56;-9.00;99.90
41882;DHT22;27562;47.524;12.404;2022-12-18T09:01:21;-8.90;99.90
41882;DHT22;27562;47.524;12.404;2022-12-18T09:03:50;-8.90;99.90
41882;DHT22;27562;47.524;12.404;2022-12-18T09:06:16;-8.80;99.90
41882;DHT22;27562;47.524;12.404;2022-12-18T09:08:45;-8.70;99.90
41882;DHT22;27562;47.524;12.404;2022-12-18T09:11:29;-8.60;99.90
41882;DHT22;27562;47.524;12.404;2022-12-18T09:13:55;-8.50;99.90
41882;DHT22;27562;47.524;12.404;2022-12-18T09:16:21;-8.50;99.90
41882;DHT22;27562;47.524;12.404;2022-12-18T09:18:47;-8.40;99.90
41882;DHT22;27562;47.524;12.404;2022-12-18T09:21:14;-8.30;99.90
41882;DHT22;27562;47.524;12.404;2022-12-18T09:23:40;-8.20;99.90
41882;DHT22;27562;47.524;12.404;2022-12-18T09:26:06;-8.10;99.90
41882;DHT22;27562;47.524;12.404;2022-12-18T09:28:31;-8.00;99.90
41882;DHT22;27562;47.524;12.404;2022-12-18T09:30:57;-7.90;99.90
41882;DHT22;27562;47.524;12.404;2022-12-18T09:33:23;-7.90;99.90
41882;DHT22;27562;47.524;12.404;2022-12-18T09:35:48;-7.80;99.90
41882;DHT22;27562;47.524;12.404;2022-12-18T09:38:35;-7.80;99.90
41882;DHT22;27562;47.524;12.404;2022-12-18T09:43:56;-7.60;99.90
41882;DHT22;27562;47.524;12.404;2022-12-18T09:46:43;-7.50;99.90
41882;DHT22;27562;47.524;12.404;2022-12-18T09:49:22;-7.30;99.90
41882;DHT22;27562;47.524;12.404;2022-12-18T09:51:54;-7.20;99.90
41882;DHT22;27562;47.524;12.404;2022-12-18T09:54:26;-7.10;99.90
41882;DHT22;27562;47.524;12.404;2022-12-18T09:57:04;-7.00;99.90
41882;DHT22;27562;47.524;12.404;2022-12-18T09:59:35;-6.90;99.90
41882;DHT22;27562;47.524;12.404;2022-12-18T10:04:38;-6.80;99.90
41882;DHT22;27562;47.524;12.404;2022-12-18T10:07:08;-6.70;99.90
41882;DHT22;27562;47.524;12.404;2022-12-18T10:12:21;-6.50;99.90
41882;DHT22;27562;47.524;12.404;2022-12-18T10:14:57;-6.40;99.90
41882;DHT22;27562;47.524;12.404;2022-12-18T10:17:40;-6.40;99.90
41882;DHT22;27562;47.524;12.404;2022-12-18T10:22:57;-6.20;99.90
41882;DHT22;27562;47.524;12.404;2022-12-18T10:27:56;-6.10;99.90
41882;DHT22;27562;47.524;12.404;2022-12-18T10:30:23;-6.00;99.90
41882;DHT22;27562;47.524;12.404;2022-12-18T10:32:49;-5.90;99.90
41882;DHT22;27562;47.524;12.404;2022-12-18T10:35:25;-5.80;99.90
41882;DHT22;27562;47.524;12.404;2022-12-18T10:40:31;-5.60;99.90
41882;DHT22;27562;47.524;12.404;2022-12-18T10:43:13;-5.50;99.90
41882;DHT22;27562;47.524;12.404;2022-12-18T10:45:39;-5.40;99.90
41882;DHT22;27562;47.524;12.404;2022-12-18T10:48:17;-5.30;99.90
41882;DHT22;27562;47.524;12.404;2022-12-18T10:50:42;-5.20;99.90
41882;DHT22;27562;47.524;12.404;2022-12-18T10:53:13;-5.10;99.90
41882;DHT22;27562;47.524;12.404;2022-12-18T10:55:40;-5.00;99.90
41882;DHT22;27562;47.524;12.404;2022-12-18T10:58:26;-5.00;99.90
41882;DHT22;27562;47.524;12.404;2022-12-18T11:06:17;-4.70;99.90
41882;DHT22;27562;47.524;12.404;2022-12-18T11:08:43;-4.60;99.90
41882;DHT22;27562;47.524;12.404;2022-12-18T11:11:19;-4.50;99.90
41882;DHT22;27562;47.524;12.404;2022-12-18T11:13:54;-4.50;99.90
41882;DHT22;27562;47.524;12.404;2022-12-18T11:16:22;-4.40;99.90
41882;DHT22;27562;47.524;12.404;2022-12-18T11:18:49;-4.30;99.90
41882;DHT22;27562;47.524;12.404;2022-12-18T11:21:14;-4.30;99.90
41882;DHT22;27562;47.524;12.404;2022-12-18T11:23:50;-4.20;99.90
41882;DHT22;27562;47.524;12.404;2022-12-18T11:26:16;-4.10;99.90
41882;DHT22;27562;47.524;12.404;2022-12-18T11:31:27;-4.00;99.90
41882;DHT22;27562;47.524;12.404;2022-12-18T11:34:04;-4.00;99.90
41882;DHT22;27562;47.524;12.404;2022-12-18T11:36:52;-3.90;99.90
41882;DHT22;27562;47.524;12.404;2022-12-18T11:41:56;-3.80;99.90
41882;DHT22;27562;47.524;12.404;2022-12-18T11:44:45;-3.70;99.90
41882;DHT22;27562;47.524;12.404;2022-12-18T11:47:25;-3.60;99.90
41882;DHT22;27562;47.524;12.404;2022-12-18T11:49:52;-3.60;99.90
41882;DHT22;27562;47.524;12.404;2022-12-18T11:52:19;-3.50;99.90
41882;DHT22;27562;47.524;12.404;2022-12-18T11:54:46;-3.40;99.90
41882;DHT22;27562;47.524;12.404;2022-12-18T12:07:38;-3.00;99.90
41882;DHT22;27562;47.524;12.404;2022-12-18T12:15:16;-2.80;99.90
41882;DHT22;27562;47.524;12.404;2022-12-18T12:25:39;-2.50;99.90
41882;DHT22;27562;47.524;12.404;2022-12-18T12:30:35;-2.40;99.90
41882;DHT22;27562;47.524;12.404;2022-12-18T12:38:41;-2.20;99.90
41882;DHT22;27562;47.524;12.404;2022-12-18T12:41:14;-2.10;99.90
41882;DHT22;27562;47.524;12.404;2022-12-18T12:44:01;-2.00;99.90
41882;DHT22;27562;47.524;12.404;2022-12-18T12:46:29;-1.90;99.90
41882;DHT22;27562;47.524;12.404;2022-12-18T12:48:59;-1.80;99.90
41882;DHT22;27562;47.524;12.404;2022-12-18T12:51:35;-1.80;99.90
41882;DHT22;27562;47.524;12.404;2022-12-18T12:54:02;-1.70;99.90
41882;DHT22;27562;47.524;12.404;2022-12-18T12:56:36;-1.60;99.90
41882;DHT22;27562;47.524;12.404;2022-12-18T12:59:06;-1.60;99.90
41882;DHT22;27562;47.524;12.404;2022-12-18T13:06:38;-1.40;99.90
41882;DHT22;27562;47.524;12.404;2022-12-18T13:09:05;-1.40;99.90
41882;DHT22;27562;47.524;12.404;2022-12-18T13:14:26;-1.50;99.90
41882;DHT22;27562;47.524;12.404;2022-12-18T13:17:03;-1.50;99.90
41882;DHT22;27562;47.524;12.404;2022-12-18T13:19:38;-1.60;99.90
41882;DHT22;27562;47.524;12.404;2022-12-18T13:22:03;-1.60;99.90
41882;DHT22;27562;47.524;12.404;2022-12-18T13:24:30;-1.70;99.90
41882;DHT22;27562;47.524;12.404;2022-12-18T13:26:56;-1.70;99.90
41882;DHT22;27562;47.524;12.404;2022-12-18T13:29:43;-1.70;99.90
41882;DHT22;27562;47.524;12.404;2022-12-18T13:32:18;-1.70;99.90
41882;DHT22;27562;47.524;12.404;2022-12-18T13:34:45;-1.70;99.90
41882;DHT22;27562;47.524;12.404;2022-12-18T13:39:54;-1.70;99.90
41882;DHT22;27562;47.524;12.404;2022-12-18T13:47:51;-1.70;99.90
41882;DHT22;27562;47.524;12.404;2022-12-18T13:50:22;-1.60;99.90
41882;DHT22;27562;47.524;12.404;2022-12-18T13:52:50;-1.70;99.90
41882;DHT22;27562;47.524;12.404;2022-12-18T13:55:17;-1.70;99.90
41882;DHT22;27562;47.524;12.404;2022-12-18T13:57:43;-1.80;99.90
41882;DHT22;27562;47.524;12.404;2022-12-18T14:02:46;-1.80;99.90
41882;DHT22;27562;47.524;12.404;2022-12-18T14:05:29;-1.80;99.90
41882;DHT22;27562;47.524;12.404;2022-12-18T14:08:01;-1.80;99.90
41882;DHT22;27562;47.524;12.404;2022-12-18T14:10:30;-1.80;99.90
41882;DHT22;27562;47.524;12.404;2022-12-18T14:12:55;-1.80;99.90
41882;DHT22;27562;47.524;12.404;2022-12-18T14:17:53;-1.90;99.90
41882;DHT22;27562;47.524;12.404;2022-12-18T14:20:19;-1.90;99.90
41882;DHT22;27562;47.524;12.404;2022-12-18T14:22:46;-2.00;99.90
41882;DHT22;27562;47.524;12.404;2022-12-18T14:28:03;-2.10;99.90
41882;DHT22;27562;47.524;12.404;2022-12-18T14:30:36;-2.20;99.90
41882;DHT22;27562;47.524;12.404;2022-12-18T14:35:28;-2.20;99.90
41882;DHT22;27562;47.524;12.404;2022-12-18T14:37:53;-2.20;99.90
41882;DHT22;27562;47.524;12.404;2022-12-18T14:40:19;-2.20;99.90
41882;DHT22;27562;47.524;12.404;2022-12-18T14:42:44;-2.20;99.90
41882;DHT22;27562;47.524;12.404;2022-12-18T14:47:54;-2.20;99.90
41882;DHT22;27562;47.524;12.404;2022-12-18T14:50:20;-2.20;99.90
41882;DHT22;27562;47.524;12.404;2022-12-18T14:52:46;-2.30;99.90
41882;DHT22;27562;47.524;12.404;2022-12-18T14:55:15;-2.40;99.90
41882;DHT22;27562;47.524;12.404;2022-12-18T14:57:41;-2.50;99.90
41882;DHT22;27562;47.524;12.404;2022-12-18T15:00:15;-2.50;99.90
41882;DHT22;27562;47.524;12.404;2022-12-18T15:02:41;-2.60;99.90
41882;DHT22;27562;47.524;12.404;2022-12-18T15:07:53;-2.60;99.90
41882;DHT22;27562;47.524;12.404;2022-12-18T15:10:21;-2.60;99.90
41882;DHT22;27562;47.524;12.404;2022-12-18T15:13:06;-2.60;99.90
41882;DHT22;27562;47.524;12.404;2022-12-18T15:18:16;-2.70;99.90
41882;DHT22;27562;47.524;12.404;2022-12-18T15:20:52;-2.80;99.90
41882;DHT22;27562;47.524;12.404;2022-12-18T15:25:58;-2.90;99.90
41882;DHT22;27562;47.524;12.404;2022-12-18T15:28:38;-3.10;99.90
41882;DHT22;27562;47.524;12.404;2022-12-18T15:33:43;-3.30;99.90
41882;DHT22;27562;47.524;12.404;2022-12-18T15:36:12;-3.40;99.90
41882;DHT22;27562;47.524;12.404;2022-12-18T15:38:38;-3.50;99.90
41882;DHT22;27562;47.524;12.404;2022-12-18T15:41:04;-3.60;99.90
41882;DHT22;27562;47.524;12.404;2022-12-18T15:43:32;-3.60;99.90
41882;DHT22;27562;47.524;12.404;2022-12-18T15:48:31;-3.80;99.90
41882;DHT22;27562;47.524;12.404;2022-12-18T15:50:58;-3.80;99.90
41882;DHT22;27562;47.524;12.404;2022-12-18T15:53:25;-3.80;99.90
41882;DHT22;27562;47.524;12.404;2022-12-18T15:55:51;-3.80;99.90
41882;DHT22;27562;47.524;12.404;2022-12-18T15:58:35;-3.80;99.90
41882;DHT22;27562;47.524;12.404;2022-12-18T16:01:01;-3.80;99.90
41882;DHT22;27562;47.524;12.404;2022-12-18T16:03:27;-3.80;99.90
41882;DHT22;27562;47.524;12.404;2022-12-18T16:05:53;-3.70;99.90
41882;DHT22;27562;47.524;12.404;2022-12-18T16:08:19;-3.80;99.90
41882;DHT22;27562;47.524;12.404;2022-12-18T16:10:45;-3.80;99.90
41882;DHT22;27562;47.524;12.404;2022-12-18T16:13:15;-3.80;99.90
41882;DHT22;27562;47.524;12.404;2022-12-18T16:15:41;-3.80;99.90
41882;DHT22;27562;47.524;12.404;2022-12-18T16:18:07;-3.90;99.90
41882;DHT22;27562;47.524;12.404;2022-12-18T16:20:33;-4.00;99.90
41882;DHT22;27562;47.524;12.404;2022-12-18T16:22:59;-4.10;99.90
41882;DHT22;27562;47.524;12.404;2022-12-18T16:25:26;-4.20;99.90
41882;DHT22;27562;47.524;12.404;2022-12-18T16:27:54;-4.20;99.90
41882;DHT22;27562;47.524;12.404;2022-12-18T16:30:27;-4.30;99.90
41882;DHT22;27562;47.524;12.404;2022-12-18T16:32:55;-4.30;99.90
41882;DHT22;27562;47.524;12.404;2022-12-18T16:35:20;-4.40;99.90
41882;DHT22;27562;47.524;12.404;2022-12-18T16:37:46;-4.40;99.90
41882;DHT22;27562;47.524;12.404;2022-12-18T16:40:13;-4.40;99.90
41882;DHT22;27562;47.524;12.404;2022-12-18T16:42:40;-4.40;99.90
41882;DHT22;27562;47.524;12.404;2022-12-18T16:45:07;-4.40;99.90
41882;DHT22;27562;47.524;12.404;2022-12-18T16:47:33;-4.40;99.90
41882;DHT22;27562;47.524;12.404;2022-12-18T16:50:00;-4.40;99.90
41882;DHT22;27562;47.524;12.404;2022-12-18T16:52:26;-4.60;99.90
41882;DHT22;27562;47.524;12.404;2022-12-18T16:54:52;-4.60;99.90
41882;DHT22;27562;47.524;12.404;2022-12-18T16:57:19;-4.70;99.90
41882;DHT22;27562;47.524;12.404;2022-12-18T16:59:45;-4.70;99.90
41882;DHT22;27562;47.524;12.404;2022-12-18T17:02:29;-4.80;99.90
41882;DHT22;27562;47.524;12.404;2022-12-18T17:04:56;-4.80;99.90
41882;DHT22;27562;47.524;12.404;2022-12-18T17:07:22;-4.90;99.90
41882;DHT22;27562;47.524;12.404;2022-12-18T17:09:48;-4.90;99.90
41882;DHT22;27562;47.524;12.404;2022-12-18T17:12:15;-4.80;99.90
41882;DHT22;27562;47.524;12.404;2022-12-18T17:14:41;-4.80;99.90
41882;DHT22;27562;47.524;12.404;2022-12-18T17:17:07;-4.80;99.90
41882;DHT22;27562;47.524;12.404;2022-12-18T17:19:33;-4.70;99.90
41882;DHT22;27562;47.524;12.404;2022-12-18T17:22:00;-4.70;99.90
41882;DHT22;27562;47.524;12.404;2022-12-18T17:24:26;-4.70;99.90